sensor_id;sensor_type;location;lat;lon;timestamp;P1;durP1;ratioP1;P2;durP2;ratioP2
12956;SDS011;6543;48.836;10.092;2022-07-17T00:00:39;3.27;;;2.20;;
12956;SDS011;6543;48.836;10.092;2022-07-17T00:03:07;2.80;;;2.30;;
12956;SDS011;6543;48.836;10.092;2022-07-17T00:05:34;11.43;;;2.40;;
12956;SDS011;6543;48.836;10.092;2022-07-17T00:08:01;8.10;;;2.83;;
12956;SDS011;6543;48.836;10.092;2022-07-17T00:10:28;7.73;;;2.50;;
12956;SDS011;6543;48.836;10.092;2022-07-17T00:12:55;2.90;;;2.23;;
12956;SDS011;6543;48.836;10.092;2022-07-17T00:15:23;10.93;;;2.90;;
12956;SDS011;6543;48.836;10.092;2022-07-17T00:17:50;6.03;;;3.13;;
12956;SDS011;6543;48.836;10.092;2022-07-17T00:20:17;6.07;;;2.17;;
12956;SDS011;6543;48.836;10.092;2022-07-17T00:22:44;4.33;;;2.50;;
12956;SDS011;6543;48.836;10.092;2022-07-17T00:25:12;5.20;;;2.70;;
12956;SDS011;6543;48.836;10.092;2022-07-17T00:27:39;5.03;;;2.30;;
12956;SDS011;6543;48.836;10.092;2022-07-17T00:30:07;5.47;;;2.60;;
12956;SDS011;6543;48.836;10.092;2022-07-17T00:32:36;5.57;;;2.97;;
12956;SDS011;6543;48.836;10.092;2022-07-17T00:35:03;3.40;;;2.57;;
12956;SDS011;6543;48.836;10.092;2022-07-17T00:37:30;5.10;;;2.70;;
12956;SDS011;6543;48.836;10.092;2022-07-17T00:39:57;5.50;;;2.70;;
12956;SDS011;6543;48.836;10.092;2022-07-17T00:42:24;4.30;;;2.43;;
12956;SDS011;6543;48.836;10.092;2022-07-17T00:44:51;3.13;;;2.23;;
12956;SDS011;6543;48.836;10.092;2022-07-17T00:47:18;4.90;;;2.50;;
12956;SDS011;6543;48.836;10.092;2022-07-17T00:49:48;8.03;;;3.13;;
12956;SDS011;6543;48.836;10.092;2022-07-17T00:52:15;5.93;;;2.57;;
12956;SDS011;6543;48.836;10.092;2022-07-17T00:54:44;5.13;;;2.73;;
12956;SDS011;6543;48.836;10.092;2022-07-17T00:57:13;4.33;;;3.17;;
12956;SDS011;6543;48.836;10.092;2022-07-17T00:59:41;6.70;;;3.03;;
12956;SDS011;6543;48.836;10.092;2022-07-17T01:02:08;5.73;;;3.10;;
12956;SDS011;6543;48.836;10.092;2022-07-17T01:04:36;4.53;;;2.77;;
12956;SDS011;6543;48.836;10.092;2022-07-17T01:07:05;5.37;;;2.97;;
12956;SDS011;6543;48.836;10.092;2022-07-17T01:09:33;5.30;;;3.00;;
12956;SDS011;6543;48.836;10.092;2022-07-17T01:12:01;13.07;;;3.30;;
12956;SDS011;6543;48.836;10.092;2022-07-17T01:14:28;5.97;;;2.90;;
12956;SDS011;6543;48.836;10.092;2022-07-17T01:16:55;3.97;;;3.53;;
12956;SDS011;6543;48.836;10.092;2022-07-17T01:19:22;4.67;;;2.90;;
12956;SDS011;6543;48.836;10.092;2022-07-17T01:21:50;4.40;;;2.87;;
12956;SDS011;6543;48.836;10.092;2022-07-17T01:24:17;4.63;;;2.60;;
12956;SDS011;6543;48.836;10.092;2022-07-17T01:26:45;3.20;;;2.83;;
12956;SDS011;6543;48.836;10.092;2022-07-17T01:29:14;4.23;;;3.13;;
12956;SDS011;6543;48.836;10.092;2022-07-17T01:31:42;3.40;;;3.10;;
12956;SDS011;6543;48.836;10.092;2022-07-17T01:34:09;5.90;;;3.47;;
12956;SDS011;6543;48.836;10.092;2022-07-17T01:36:38;4.23;;;3.50;;
12956;SDS011;6543;48.836;10.092;2022-07-17T01:39:07;5.17;;;3.20;;
12956;SDS011;6543;48.836;10.092;2022-07-17T01:41:34;3.53;;;3.23;;
12956;SDS011;6543;48.836;10.092;2022-07-17T01:44:01;3.63;;;3.10;;
12956;SDS011;6543;48.836;10.092;2022-07-17T01:46:29;5.87;;;3.20;;
12956;SDS011;6543;48.836;10.092;2022-07-17T01:48:56;7.50;;;3.10;;
12956;SDS011;6543;48.836;10.092;2022-07-17T01:51:23;5.27;;;3.27;;
12956;SDS011;6543;48.836;10.092;2022-07-17T01:53:50;4.43;;;3.33;;
12956;SDS011;6543;48.836;10.092;2022-07-17T01:56:18;4.87;;;3.57;;
12956;SDS011;6543;48.836;10.092;2022-07-17T01:58:45;3.53;;;3.03;;
12956;SDS011;6543;48.836;10.092;2022-07-17T02:01:12;4.93;;;3.50;;
12956;SDS011;6543;48.836;10.092;2022-07-17T02:03:39;5.37;;;3.57;;
12956;SDS011;6543;48.836;10.092;2022-07-17T02:06:05;7.27;;;4.30;;
12956;SDS011;6543;48.836;10.092;2022-07-17T02:08:35;4.83;;;3.87;;
12956;SDS011;6543;48.836;10.092;2022-07-17T02:11:01;7.03;;;3.50;;
12956;SDS011;6543;48.836;10.092;2022-07-17T02:13:30;8.27;;;3.73;;
12956;SDS011;6543;48.836;10.092;2022-07-17T02:15:57;6.23;;;4.67;;
12956;SDS011;6543;48.836;10.092;2022-07-17T02:18:23;4.67;;;3.90;;
12956;SDS011;6543;48.836;10.092;2022-07-17T02:20:50;6.07;;;4.50;;
12956;SDS011;6543;48.836;10.092;2022-07-17T02:23:17;5.10;;;3.83;;
12956;SDS011;6543;48.836;10.092;2022-07-17T02:25:44;13.73;;;3.97;;
12956;SDS011;6543;48.836;10.092;2022-07-17T02:28:11;4.10;;;3.70;;
12956;SDS011;6543;48.836;10.092;2022-07-17T02:30:40;4.33;;;3.47;;
12956;SDS011;6543;48.836;10.092;2022-07-17T02:33:07;4.37;;;3.97;;
12956;SDS011;6543;48.836;10.092;2022-07-17T02:35:34;5.30;;;3.93;;
12956;SDS011;6543;48.836;10.092;2022-07-17T02:38:01;7.40;;;3.33;;
12956;SDS011;6543;48.836;10.092;2022-07-17T02:40:28;7.07;;;3.80;;
12956;SDS011;6543;48.836;10.092;2022-07-17T02:42:55;6.90;;;3.50;;
12956;SDS011;6543;48.836;10.092;2022-07-17T02:45:22;8.33;;;4.10;;
12956;SDS011;6543;48.836;10.092;2022-07-17T02:47:52;4.90;;;3.87;;
12956;SDS011;6543;48.836;10.092;2022-07-17T02:50:20;4.17;;;3.77;;
12956;SDS011;6543;48.836;10.092;2022-07-17T02:52:47;8.70;;;4.23;;
12956;SDS011;6543;48.836;10.092;2022-07-17T02:55:15;4.63;;;4.10;;
12956;SDS011;6543;48.836;10.092;2022-07-17T02:57:43;6.20;;;4.20;;
12956;SDS011;6543;48.836;10.092;2022-07-17T03:00:12;6.90;;;4.10;;
12956;SDS011;6543;48.836;10.092;2022-07-17T03:02:41;4.97;;;4.00;;
12956;SDS011;6543;48.836;10.092;2022-07-17T03:05:09;4.40;;;3.83;;
12956;SDS011;6543;48.836;10.092;2022-07-17T03:07:37;6.33;;;4.53;;
12956;SDS011;6543;48.836;10.092;2022-07-17T03:10:04;6.53;;;4.30;;
12956;SDS011;6543;48.836;10.092;2022-07-17T03:12:32;7.60;;;4.80;;
12956;SDS011;6543;48.836;10.092;2022-07-17T03:14:59;5.23;;;3.73;;
12956;SDS011;6543;48.836;10.092;2022-07-17T03:17:25;7.60;;;5.00;;
12956;SDS011;6543;48.836;10.092;2022-07-17T03:19:52;7.37;;;4.13;;
12956;SDS011;6543;48.836;10.092;2022-07-17T03:22:21;5.37;;;4.20;;
12956;SDS011;6543;48.836;10.092;2022-07-17T03:24:48;8.50;;;4.33;;
12956;SDS011;6543;48.836;10.092;2022-07-17T03:27:15;4.70;;;4.00;;
12956;SDS011;6543;48.836;10.092;2022-07-17T03:29:42;6.00;;;4.10;;
12956;SDS011;6543;48.836;10.092;2022-07-17T03:32:09;5.87;;;3.60;;
12956;SDS011;6543;48.836;10.092;2022-07-17T03:34:36;4.70;;;3.70;;
12956;SDS011;6543;48.836;10.092;2022-07-17T03:37:03;4.00;;;3.63;;
12956;SDS011;6543;48.836;10.092;2022-07-17T03:39:32;3.27;;;3.00;;
12956;SDS011;6543;48.836;10.092;2022-07-17T03:41:59;6.13;;;4.00;;
12956;SDS011;6543;48.836;10.092;2022-07-17T03:44:26;4.20;;;3.80;;
12956;SDS011;6543;48.836;10.092;2022-07-17T03:46:52;4.00;;;3.60;;
12956;SDS011;6543;48.836;10.092;2022-07-17T03:49:19;3.90;;;3.37;;
12956;SDS011;6543;48.836;10.092;2022-07-17T03:51:46;6.23;;;3.90;;
12956;SDS011;6543;48.836;10.092;2022-07-17T03:54:13;6.17;;;3.77;;
12956;SDS011;6543;48.836;10.092;2022-07-17T03:56:42;4.03;;;3.47;;
12956;SDS011;6543;48.836;10.092;2022-07-17T03:59:08;5.57;;;3.83;;
12956;SDS011;6543;48.836;10.092;2022-07-17T04:01:35;6.37;;;3.97;;
12956;SDS011;6543;48.836;10.092;2022-07-17T04:04:02;5.90;;;3.80;;
12956;SDS011;6543;48.836;10.092;2022-07-17T04:06:30;4.03;;;3.63;;
12956;SDS011;6543;48.836;10.092;2022-07-17T04:08:57;5.63;;;3.87;;
12956;SDS011;6543;48.836;10.092;2022-07-17T04:11:24;4.50;;;4.10;;
12956;SDS011;6543;48.836;10.092;2022-07-17T04:13:52;5.17;;;4.10;;
12956;SDS011;6543;48.836;10.092;2022-07-17T04:16:19;4.93;;;3.70;;
12956;SDS011;6543;48.836;10.092;2022-07-17T04:18:46;6.53;;;4.10;;
12956;SDS011;6543;48.836;10.092;2022-07-17T04:21:12;4.33;;;3.47;;
12956;SDS011;6543;48.836;10.092;2022-07-17T04:23:39;4.13;;;3.63;;
12956;SDS011;6543;48.836;10.092;2022-07-17T04:26:06;5.30;;;3.37;;
12956;SDS011;6543;48.836;10.092;2022-07-17T04:28:33;6.97;;;3.67;;
12956;SDS011;6543;48.836;10.092;2022-07-17T04:31:02;4.63;;;3.23;;
12956;SDS011;6543;48.836;10.092;2022-07-17T04:33:29;4.50;;;4.07;;
12956;SDS011;6543;48.836;10.092;2022-07-17T04:35:55;6.53;;;3.60;;
12956;SDS011;6543;48.836;10.092;2022-07-17T04:38:22;6.27;;;3.80;;
12956;SDS011;6543;48.836;10.092;2022-07-17T04:40:49;3.83;;;3.43;;
12956;SDS011;6543;48.836;10.092;2022-07-17T04:43:16;3.57;;;3.27;;
12956;SDS011;6543;48.836;10.092;2022-07-17T04:45:43;6.27;;;3.70;;
12956;SDS011;6543;48.836;10.092;2022-07-17T04:48:11;5.43;;;3.43;;
12956;SDS011;6543;48.836;10.092;2022-07-17T04:50:38;4.87;;;3.30;;
12956;SDS011;6543;48.836;10.092;2022-07-17T04:53:05;5.30;;;3.23;;
12956;SDS011;6543;48.836;10.092;2022-07-17T04:55:32;4.83;;;2.87;;
12956;SDS011;6543;48.836;10.092;2022-07-17T04:57:59;4.20;;;3.23;;
12956;SDS011;6543;48.836;10.092;2022-07-17T05:00:26;6.03;;;3.40;;
12956;SDS011;6543;48.836;10.092;2022-07-17T05:02:53;3.87;;;3.20;;
12956;SDS011;6543;48.836;10.092;2022-07-17T05:05:21;3.70;;;3.00;;
12956;SDS011;6543;48.836;10.092;2022-07-17T05:07:48;5.47;;;3.57;;
12956;SDS011;6543;48.836;10.092;2022-07-17T05:10:15;4.27;;;3.13;;
12956;SDS011;6543;48.836;10.092;2022-07-17T05:12:42;7.50;;;3.13;;
12956;SDS011;6543;48.836;10.092;2022-07-17T05:15:09;5.63;;;2.83;;
12956;SDS011;6543;48.836;10.092;2022-07-17T05:17:36;3.30;;;2.37;;
12956;SDS011;6543;48.836;10.092;2022-07-17T05:20:03;3.47;;;2.63;;
12956;SDS011;6543;48.836;10.092;2022-07-17T05:22:33;2.80;;;2.60;;
12956;SDS011;6543;48.836;10.092;2022-07-17T05:24:59;2.40;;;2.20;;
12956;SDS011;6543;48.836;10.092;2022-07-17T05:27:27;5.70;;;2.77;;
12956;SDS011;6543;48.836;10.092;2022-07-17T05:29:54;4.63;;;2.63;;
12956;SDS011;6543;48.836;10.092;2022-07-17T05:32:21;3.03;;;2.10;;
12956;SDS011;6543;48.836;10.092;2022-07-17T05:34:48;4.67;;;2.13;;
12956;SDS011;6543;48.836;10.092;2022-07-17T05:37:14;4.30;;;2.40;;
12956;SDS011;6543;48.836;10.092;2022-07-17T05:39:43;4.07;;;2.37;;
12956;SDS011;6543;48.836;10.092;2022-07-17T05:42:09;2.70;;;2.40;;
12956;SDS011;6543;48.836;10.092;2022-07-17T05:44:36;3.17;;;2.60;;
12956;SDS011;6543;48.836;10.092;2022-07-17T05:47:03;2.93;;;2.20;;
12956;SDS011;6543;48.836;10.092;2022-07-17T05:49:30;3.23;;;2.40;;
12956;SDS011;6543;48.836;10.092;2022-07-17T05:51:57;3.40;;;2.23;;
12956;SDS011;6543;48.836;10.092;2022-07-17T05:54:23;5.90;;;2.60;;
12956;SDS011;6543;48.836;10.092;2022-07-17T05:56:52;3.80;;;2.23;;
12956;SDS011;6543;48.836;10.092;2022-07-17T05:59:19;4.10;;;2.10;;
12956;SDS011;6543;48.836;10.092;2022-07-17T06:01:45;2.37;;;2.00;;
12956;SDS011;6543;48.836;10.092;2022-07-17T06:04:12;3.43;;;2.33;;
12956;SDS011;6543;48.836;10.092;2022-07-17T06:06:39;3.17;;;2.17;;
12956;SDS011;6543;48.836;10.092;2022-07-17T06:09:06;2.30;;;2.10;;
12956;SDS011;6543;48.836;10.092;2022-07-17T06:11:33;3.10;;;1.90;;
12956;SDS011;6543;48.836;10.092;2022-07-17T06:14:01;3.20;;;1.57;;
12956;SDS011;6543;48.836;10.092;2022-07-17T06:16:28;2.10;;;1.43;;
12956;SDS011;6543;48.836;10.092;2022-07-17T06:18:55;1.63;;;1.53;;
12956;SDS011;6543;48.836;10.092;2022-07-17T06:21:22;3.50;;;1.93;;
12956;SDS011;6543;48.836;10.092;2022-07-17T06:23:49;2.30;;;1.70;;
12956;SDS011;6543;48.836;10.092;2022-07-17T06:26:16;3.27;;;1.70;;
12956;SDS011;6543;48.836;10.092;2022-07-17T06:28:43;5.03;;;2.43;;
12956;SDS011;6543;48.836;10.092;2022-07-17T06:31:12;3.10;;;1.90;;
12956;SDS011;6543;48.836;10.092;2022-07-17T06:33:39;1.90;;;1.63;;
12956;SDS011;6543;48.836;10.092;2022-07-17T06:36:05;4.37;;;2.17;;
12956;SDS011;6543;48.836;10.092;2022-07-17T06:38:33;3.60;;;2.10;;
12956;SDS011;6543;48.836;10.092;2022-07-17T06:41:00;6.23;;;2.17;;
12956;SDS011;6543;48.836;10.092;2022-07-17T06:43:26;2.80;;;2.00;;
12956;SDS011;6543;48.836;10.092;2022-07-17T06:45:54;3.53;;;2.03;;
12956;SDS011;6543;48.836;10.092;2022-07-17T06:48:22;2.60;;;2.13;;
12956;SDS011;6543;48.836;10.092;2022-07-17T06:50:49;3.13;;;2.00;;
12956;SDS011;6543;48.836;10.092;2022-07-17T06:53:16;3.53;;;1.83;;
12956;SDS011;6543;48.836;10.092;2022-07-17T06:55:43;3.73;;;2.17;;
12956;SDS011;6543;48.836;10.092;2022-07-17T06:58:10;5.77;;;2.30;;
12956;SDS011;6543;48.836;10.092;2022-07-17T07:00:37;2.60;;;2.13;;
12956;SDS011;6543;48.836;10.092;2022-07-17T07:03:04;4.07;;;1.77;;
12956;SDS011;6543;48.836;10.092;2022-07-17T07:05:33;3.80;;;1.70;;
12956;SDS011;6543;48.836;10.092;2022-07-17T07:08:00;3.33;;;1.60;;
12956;SDS011;6543;48.836;10.092;2022-07-17T07:10:27;2.33;;;2.00;;
12956;SDS011;6543;48.836;10.092;2022-07-17T07:12:54;4.47;;;2.47;;
12956;SDS011;6543;48.836;10.092;2022-07-17T07:15:21;6.13;;;2.33;;
12956;SDS011;6543;48.836;10.092;2022-07-17T07:17:48;2.08;;;1.83;;
12956;SDS011;6543;48.836;10.092;2022-07-17T07:20:15;2.57;;;1.70;;
12956;SDS011;6543;48.836;10.092;2022-07-17T07:22:43;5.28;;;1.73;;
12956;SDS011;6543;48.836;10.092;2022-07-17T07:25:10;4.90;;;1.90;;
12956;SDS011;6543;48.836;10.092;2022-07-17T07:27:37;3.88;;;1.77;;
12956;SDS011;6543;48.836;10.092;2022-07-17T07:30:04;1.95;;;1.70;;
12956;SDS011;6543;48.836;10.092;2022-07-17T07:32:34;2.05;;;1.60;;
12956;SDS011;6543;48.836;10.092;2022-07-17T07:35:01;1.92;;;1.48;;
12956;SDS011;6543;48.836;10.092;2022-07-17T07:37:29;3.63;;;1.65;;
12956;SDS011;6543;48.836;10.092;2022-07-17T07:39:57;3.35;;;1.60;;
12956;SDS011;6543;48.836;10.092;2022-07-17T07:42:24;3.35;;;1.40;;
12956;SDS011;6543;48.836;10.092;2022-07-17T07:44:51;2.33;;;1.70;;
12956;SDS011;6543;48.836;10.092;2022-07-17T07:47:18;2.25;;;1.40;;
12956;SDS011;6543;48.836;10.092;2022-07-17T07:49:45;1.75;;;1.65;;
12956;SDS011;6543;48.836;10.092;2022-07-17T07:52:12;6.85;;;1.58;;
12956;SDS011;6543;48.836;10.092;2022-07-17T07:54:39;1.88;;;1.63;;
12956;SDS011;6543;48.836;10.092;2022-07-17T07:57:07;5.47;;;1.40;;
12956;SDS011;6543;48.836;10.092;2022-07-17T07:59:34;2.80;;;1.80;;
12956;SDS011;6543;48.836;10.092;2022-07-17T08:02:02;3.03;;;1.63;;
12956;SDS011;6543;48.836;10.092;2022-07-17T08:04:28;4.38;;;2.85;;
12956;SDS011;6543;48.836;10.092;2022-07-17T08:06:56;3.58;;;1.83;;
12956;SDS011;6543;48.836;10.092;2022-07-17T08:09:23;1.98;;;1.50;;
12956;SDS011;6543;48.836;10.092;2022-07-17T08:11:50;5.45;;;1.38;;
12956;SDS011;6543;48.836;10.092;2022-07-17T08:14:18;2.58;;;1.63;;
12956;SDS011;6543;48.836;10.092;2022-07-17T08:16:45;5.05;;;1.50;;
12956;SDS011;6543;48.836;10.092;2022-07-17T08:19:11;5.97;;;1.88;;
12956;SDS011;6543;48.836;10.092;2022-07-17T08:21:38;1.88;;;1.77;;
12956;SDS011;6543;48.836;10.092;2022-07-17T08:24:05;2.42;;;1.80;;
12956;SDS011;6543;48.836;10.092;2022-07-17T08:26:32;2.65;;;1.67;;
12956;SDS011;6543;48.836;10.092;2022-07-17T08:28:59;3.95;;;1.50;;
12956;SDS011;6543;48.836;10.092;2022-07-17T08:31:27;1.90;;;1.48;;
12956;SDS011;6543;48.836;10.092;2022-07-17T08:33:54;4.32;;;1.70;;
12956;SDS011;6543;48.836;10.092;2022-07-17T08:36:21;2.17;;;1.67;;
12956;SDS011;6543;48.836;10.092;2022-07-17T08:38:48;3.28;;;1.50;;
12956;SDS011;6543;48.836;10.092;2022-07-17T08:41:15;3.25;;;1.38;;
12956;SDS011;6543;48.836;10.092;2022-07-17T08:43:43;1.58;;;1.40;;
12956;SDS011;6543;48.836;10.092;2022-07-17T08:46:13;5.07;;;1.73;;
12956;SDS011;6543;48.836;10.092;2022-07-17T08:48:44;2.42;;;1.60;;
12956;SDS011;6543;48.836;10.092;2022-07-17T08:51:12;1.40;;;1.30;;
12956;SDS011;6543;48.836;10.092;2022-07-17T08:53:41;3.30;;;1.55;;
12956;SDS011;6543;48.836;10.092;2022-07-17T08:56:09;4.32;;;1.33;;
12956;SDS011;6543;48.836;10.092;2022-07-17T08:58:36;2.00;;;1.60;;
12956;SDS011;6543;48.836;10.092;2022-07-17T09:01:03;1.45;;;1.35;;
12956;SDS011;6543;48.836;10.092;2022-07-17T09:03:30;3.33;;;1.35;;
12956;SDS011;6543;48.836;10.092;2022-07-17T09:05:58;1.40;;;1.30;;
12956;SDS011;6543;48.836;10.092;2022-07-17T09:08:26;2.60;;;1.33;;
12956;SDS011;6543;48.836;10.092;2022-07-17T09:10:57;2.53;;;1.60;;
12956;SDS011;6543;48.836;10.092;2022-07-17T09:13:26;8.50;;;1.48;;
12956;SDS011;6543;48.836;10.092;2022-07-17T09:15:56;2.88;;;1.38;;
12956;SDS011;6543;48.836;10.092;2022-07-17T09:18:24;1.50;;;1.40;;
12956;SDS011;6543;48.836;10.092;2022-07-17T09:20:52;2.33;;;1.50;;
12956;SDS011;6543;48.836;10.092;2022-07-17T09:23:21;5.88;;;1.50;;
12956;SDS011;6543;48.836;10.092;2022-07-17T09:25:50;1.73;;;1.20;;
12956;SDS011;6543;48.836;10.092;2022-07-17T09:28:18;2.47;;;1.40;;
12956;SDS011;6543;48.836;10.092;2022-07-17T09:30:47;1.25;;;1.00;;
12956;SDS011;6543;48.836;10.092;2022-07-17T09:33:16;3.58;;;1.30;;
12956;SDS011;6543;48.836;10.092;2022-07-17T09:35:45;2.17;;;1.35;;
12956;SDS011;6543;48.836;10.092;2022-07-17T09:38:26;3.33;;;1.50;;
12956;SDS011;6543;48.836;10.092;2022-07-17T09:41:02;1.52;;;1.27;;
12956;SDS011;6543;48.836;10.092;2022-07-17T09:43:43;2.20;;;1.40;;
12956;SDS011;6543;48.836;10.092;2022-07-17T09:46:16;2.25;;;1.30;;
12956;SDS011;6543;48.836;10.092;2022-07-17T09:48:45;1.38;;;1.27;;
12956;SDS011;6543;48.836;10.092;2022-07-17T09:51:20;2.35;;;1.13;;
12956;SDS011;6543;48.836;10.092;2022-07-17T09:53:50;3.13;;;1.10;;
12956;SDS011;6543;48.836;10.092;2022-07-17T09:56:19;1.30;;;1.20;;
12956;SDS011;6543;48.836;10.092;2022-07-17T09:58:48;3.75;;;1.60;;
12956;SDS011;6543;48.836;10.092;2022-07-17T10:01:16;1.30;;;1.10;;
12956;SDS011;6543;48.836;10.092;2022-07-17T10:03:44;2.10;;;1.48;;
12956;SDS011;6543;48.836;10.092;2022-07-17T10:06:14;2.15;;;1.42;;
12956;SDS011;6543;48.836;10.092;2022-07-17T10:08:41;4.72;;;1.20;;
12956;SDS011;6543;48.836;10.092;2022-07-17T10:11:09;1.58;;;1.48;;
12956;SDS011;6543;48.836;10.092;2022-07-17T10:13:38;4.25;;;1.50;;
12956;SDS011;6543;48.836;10.092;2022-07-17T10:16:06;4.55;;;1.35;;
12956;SDS011;6543;48.836;10.092;2022-07-17T10:18:34;4.63;;;1.08;;
12956;SDS011;6543;48.836;10.092;2022-07-17T10:21:10;0.90;;;0.90;;
12956;SDS011;6543;48.836;10.092;2022-07-17T10:23:39;1.10;;;1.05;;
12956;SDS011;6543;48.836;10.092;2022-07-17T10:26:06;2.78;;;1.13;;
12956;SDS011;6543;48.836;10.092;2022-07-17T10:28:42;1.50;;;1.10;;
12956;SDS011;6543;48.836;10.092;2022-07-17T10:31:10;3.60;;;0.93;;
12956;SDS011;6543;48.836;10.092;2022-07-17T10:33:54;1.77;;;0.98;;
12956;SDS011;6543;48.836;10.092;2022-07-17T10:36:31;1.15;;;1.02;;
12956;SDS011;6543;48.836;10.092;2022-07-17T10:39:09;3.50;;;1.15;;
12956;SDS011;6543;48.836;10.092;2022-07-17T10:41:37;2.53;;;1.40;;
12956;SDS011;6543;48.836;10.092;2022-07-17T10:44:05;2.78;;;1.05;;
12956;SDS011;6543;48.836;10.092;2022-07-17T10:46:32;1.58;;;1.00;;
12956;SDS011;6543;48.836;10.092;2022-07-17T10:49:00;3.08;;;1.05;;
12956;SDS011;6543;48.836;10.092;2022-07-17T10:51:29;1.70;;;1.30;;
12956;SDS011;6543;48.836;10.092;2022-07-17T10:53:56;5.03;;;1.10;;
12956;SDS011;6543;48.836;10.092;2022-07-17T10:56:25;1.08;;;0.98;;
12956;SDS011;6543;48.836;10.092;2022-07-17T10:58:53;1.25;;;1.15;;
12956;SDS011;6543;48.836;10.092;2022-07-17T11:01:28;3.97;;;1.27;;
12956;SDS011;6543;48.836;10.092;2022-07-17T11:03:55;1.35;;;1.25;;
12956;SDS011;6543;48.836;10.092;2022-07-17T11:06:24;2.08;;;1.00;;
12956;SDS011;6543;48.836;10.092;2022-07-17T11:08:53;1.77;;;1.10;;
12956;SDS011;6543;48.836;10.092;2022-07-17T11:11:22;2.05;;;1.10;;
12956;SDS011;6543;48.836;10.092;2022-07-17T11:14:06;1.35;;;1.00;;
12956;SDS011;6543;48.836;10.092;2022-07-17T11:16:36;1.52;;;1.10;;
12956;SDS011;6543;48.836;10.092;2022-07-17T11:19:04;1.80;;;1.40;;
12956;SDS011;6543;48.836;10.092;2022-07-17T11:21:31;1.05;;;1.05;;
12956;SDS011;6543;48.836;10.092;2022-07-17T11:24:00;1.75;;;1.02;;
12956;SDS011;6543;48.836;10.092;2022-07-17T11:26:27;1.63;;;1.20;;
12956;SDS011;6543;48.836;10.092;2022-07-17T11:28:55;3.97;;;1.08;;
12956;SDS011;6543;48.836;10.092;2022-07-17T11:31:23;4.43;;;1.08;;
12956;SDS011;6543;48.836;10.092;2022-07-17T11:33:55;1.60;;;0.90;;
12956;SDS011;6543;48.836;10.092;2022-07-17T11:36:24;2.38;;;1.10;;
12956;SDS011;6543;48.836;10.092;2022-07-17T11:38:53;0.90;;;0.90;;
12956;SDS011;6543;48.836;10.092;2022-07-17T11:41:23;1.13;;;0.77;;
12956;SDS011;6543;48.836;10.092;2022-07-17T11:43:57;1.17;;;0.95;;
12956;SDS011;6543;48.836;10.092;2022-07-17T11:46:25;1.27;;;1.10;;
12956;SDS011;6543;48.836;10.092;2022-07-17T11:48:55;3.53;;;1.48;;
12956;SDS011;6543;48.836;10.092;2022-07-17T11:51:32;2.03;;;1.10;;
12956;SDS011;6543;48.836;10.092;2022-07-17T11:54:02;1.73;;;0.63;;
12956;SDS011;6543;48.836;10.092;2022-07-17T11:56:30;1.25;;;0.98;;
12956;SDS011;6543;48.836;10.092;2022-07-17T11:58:57;1.27;;;1.02;;
12956;SDS011;6543;48.836;10.092;2022-07-17T12:01:24;1.10;;;0.80;;
12956;SDS011;6543;48.836;10.092;2022-07-17T12:03:57;1.00;;;1.00;;
12956;SDS011;6543;48.836;10.092;2022-07-17T12:06:25;1.90;;;1.10;;
12956;SDS011;6543;48.836;10.092;2022-07-17T12:08:53;1.30;;;1.20;;
12956;SDS011;6543;48.836;10.092;2022-07-17T12:11:20;2.30;;;1.48;;
12956;SDS011;6543;48.836;10.092;2022-07-17T12:13:47;1.60;;;1.10;;
12956;SDS011;6543;48.836;10.092;2022-07-17T12:16:25;1.08;;;1.08;;
12956;SDS011;6543;48.836;10.092;2022-07-17T12:18:59;2.95;;;1.10;;
12956;SDS011;6543;48.836;10.092;2022-07-17T12:21:29;1.58;;;1.15;;
12956;SDS011;6543;48.836;10.092;2022-07-17T12:24:00;3.45;;;1.42;;
12956;SDS011;6543;48.836;10.092;2022-07-17T12:26:28;1.48;;;1.05;;
12956;SDS011;6543;48.836;10.092;2022-07-17T12:28:56;3.63;;;1.10;;
12956;SDS011;6543;48.836;10.092;2022-07-17T12:31:23;1.50;;;1.38;;
12956;SDS011;6543;48.836;10.092;2022-07-17T12:33:50;1.42;;;1.00;;
12956;SDS011;6543;48.836;10.092;2022-07-17T12:36:20;1.02;;;0.90;;
12956;SDS011;6543;48.836;10.092;2022-07-17T12:38:47;1.95;;;0.82;;
12956;SDS011;6543;48.836;10.092;2022-07-17T12:41:15;1.02;;;1.00;;
12956;SDS011;6543;48.836;10.092;2022-07-17T12:43:42;4.68;;;1.20;;
12956;SDS011;6543;48.836;10.092;2022-07-17T12:46:09;2.28;;;1.20;;
12956;SDS011;6543;48.836;10.092;2022-07-17T12:48:36;1.10;;;1.00;;
12956;SDS011;6543;48.836;10.092;2022-07-17T12:51:05;1.75;;;1.23;;
12956;SDS011;6543;48.836;10.092;2022-07-17T12:53:34;1.77;;;1.05;;
12956;SDS011;6543;48.836;10.092;2022-07-17T12:56:01;1.55;;;0.88;;
12956;SDS011;6543;48.836;10.092;2022-07-17T12:58:29;2.30;;;1.00;;
12956;SDS011;6543;48.836;10.092;2022-07-17T13:00:56;1.35;;;1.00;;
12956;SDS011;6543;48.836;10.092;2022-07-17T13:03:22;1.20;;;1.10;;
12956;SDS011;6543;48.836;10.092;2022-07-17T13:05:49;1.17;;;1.10;;
12956;SDS011;6543;48.836;10.092;2022-07-17T13:08:16;2.30;;;1.13;;
12956;SDS011;6543;48.836;10.092;2022-07-17T13:10:45;1.20;;;1.10;;
12956;SDS011;6543;48.836;10.092;2022-07-17T13:13:12;2.40;;;0.80;;
12956;SDS011;6543;48.836;10.092;2022-07-17T13:15:39;1.23;;;0.93;;
12956;SDS011;6543;48.836;10.092;2022-07-17T13:18:06;1.98;;;1.38;;
12956;SDS011;6543;48.836;10.092;2022-07-17T13:20:33;2.67;;;1.13;;
12956;SDS011;6543;48.836;10.092;2022-07-17T13:23:00;1.00;;;0.82;;
12956;SDS011;6543;48.836;10.092;2022-07-17T13:25:27;3.67;;;1.20;;
12956;SDS011;6543;48.836;10.092;2022-07-17T13:27:55;1.30;;;1.10;;
12956;SDS011;6543;48.836;10.092;2022-07-17T13:30:22;3.88;;;1.10;;
12956;SDS011;6543;48.836;10.092;2022-07-17T13:32:49;1.20;;;1.02;;
12956;SDS011;6543;48.836;10.092;2022-07-17T13:35:18;2.65;;;1.10;;
12956;SDS011;6543;48.836;10.092;2022-07-17T13:37:45;2.38;;;1.05;;
12956;SDS011;6543;48.836;10.092;2022-07-17T13:40:12;1.10;;;0.93;;
12956;SDS011;6543;48.836;10.092;2022-07-17T13:42:39;1.05;;;0.95;;
12956;SDS011;6543;48.836;10.092;2022-07-17T13:45:08;3.00;;;1.20;;
12956;SDS011;6543;48.836;10.092;2022-07-17T13:47:35;2.22;;;1.00;;
12956;SDS011;6543;48.836;10.092;2022-07-17T13:50:02;1.10;;;1.00;;
12956;SDS011;6543;48.836;10.092;2022-07-17T13:52:30;3.20;;;1.40;;
12956;SDS011;6543;48.836;10.092;2022-07-17T13:54:57;0.80;;;0.80;;
12956;SDS011;6543;48.836;10.092;2022-07-17T13:57:24;1.05;;;1.05;;
12956;SDS011;6543;48.836;10.092;2022-07-17T13:59:51;2.58;;;1.55;;
12956;SDS011;6543;48.836;10.092;2022-07-17T14:02:20;1.50;;;0.90;;
12956;SDS011;6543;48.836;10.092;2022-07-17T14:04:47;1.52;;;1.10;;
12956;SDS011;6543;48.836;10.092;2022-07-17T14:07:14;1.80;;;1.20;;
12956;SDS011;6543;48.836;10.092;2022-07-17T14:09:41;3.20;;;0.90;;
12956;SDS011;6543;48.836;10.092;2022-07-17T14:12:08;1.27;;;0.90;;
12956;SDS011;6543;48.836;10.092;2022-07-17T14:14:35;1.35;;;1.20;;
12956;SDS011;6543;48.836;10.092;2022-07-17T14:17:02;0.80;;;0.80;;
12956;SDS011;6543;48.836;10.092;2022-07-17T14:19:30;1.77;;;1.00;;
12956;SDS011;6543;48.836;10.092;2022-07-17T14:21:57;2.85;;;1.00;;
12956;SDS011;6543;48.836;10.092;2022-07-17T14:24:24;1.27;;;0.90;;
12956;SDS011;6543;48.836;10.092;2022-07-17T14:26:51;1.48;;;1.27;;
12956;SDS011;6543;48.836;10.092;2022-07-17T14:29:18;2.15;;;1.20;;
12956;SDS011;6543;48.836;10.092;2022-07-17T14:31:45;1.10;;;0.98;;
12956;SDS011;6543;48.836;10.092;2022-07-17T14:34:12;1.65;;;1.20;;
12956;SDS011;6543;48.836;10.092;2022-07-17T14:36:40;4.72;;;1.48;;
12956;SDS011;6543;48.836;10.092;2022-07-17T14:39:07;2.08;;;1.13;;
12956;SDS011;6543;48.836;10.092;2022-07-17T14:41:34;1.08;;;0.80;;
12956;SDS011;6543;48.836;10.092;2022-07-17T14:44:01;1.52;;;1.13;;
12956;SDS011;6543;48.836;10.092;2022-07-17T14:46:28;2.53;;;0.80;;
12956;SDS011;6543;48.836;10.092;2022-07-17T14:48:55;1.38;;;1.10;;
12956;SDS011;6543;48.836;10.092;2022-07-17T14:51:22;1.85;;;1.00;;